Stations météo

Publicité
Klippeneck, Allemagne (10818): Température de l'air & dewpoint: 18.10.2018 00:00:00 - 24.10.2018 00:00:00 (CEST)Klippeneck, Allemagne (10818): Température de l'air 5cm & Température de l'air -5cm: 18.10.2018 00:00:00 - 24.10.2018 00:00:00 (CEST)Klippeneck, Allemagne (10818): Température de l'air -20cm & Température de l'air -100cm: 18.10.2018 00:00:00 - 24.10.2018 00:00:00 (CEST)Klippeneck, Allemagne (10818): Vitesse du vent & gusts: 18.10.2018 00:00:00 - 24.10.2018 00:00:00 (CEST)Klippeneck, Allemagne (10818): Direction du vent: 18.10.2018 00:00:00 - 24.10.2018 00:00:00 (CEST)Klippeneck, Allemagne (10818): visibility: 18.10.2018 00:00:00 - 24.10.2018 00:00:00 (CEST)Klippeneck, Allemagne (10818): Ensoleillement: 18.10.2018 00:00:00 - 24.10.2018 00:00:00 (CEST)Klippeneck, Allemagne (10818): Quantités de précipitations: 18.10.2018 00:00:00 - 24.10.2018 00:00:00 (CEST)
Date & Time tt [°C] td [°C] tt 5cm [°C] tt -5cm [°C] tt -20cm [°C] tt -100cm [°C] ff [km/h] ff [knt] fx [km/h] fx [knt] dd vv [km] sd [min] rr [mm]
24.10.2018 00:00:00 8,4 -1,7 8,3 8,5 10,4 13,3 22 12 33 18 WNW 70 0 0,0
23.10.2018 23:00:00 9,1 -1,7 8,8 8,7 10,4 13,3 17 9 31 17 W 70 0 0,0
23.10.2018 22:00:00 9,4 -1,5 9,2 8,8 10,4 13,3 18 10 29 16 WSW 70 0 0,0
23.10.2018 21:00:00 9,6 -1,6 9,3 8,9 10,4 13,3 19 10 29 16 WSW 70 0 0,0
23.10.2018 20:00:00 9,4 -1,6 9,1 8,9 10,4 13,3 16 8 29 16 WSW 70 0 0,0
23.10.2018 19:00:00 9,3 -2,1 9,0 9,2 10,4 13,3 21 11 32 18 WSW 70 0 0,0
23.10.2018 18:00:00 9,0 -1,5 8,9 9,7 10,3 13,3 18 10 29 16 WSW 70 0 0,0
23.10.2018 17:00:00 9,4 -2,2 9,3 10,7 10,2 13,3 18 10 29 16 WSW 70 0 0,0
23.10.2018 16:00:00 9,6 0,9 10,2 11,2 10,0 13,4 13 7 22 12 W 57 0 0,0
23.10.2018 15:00:00 9,8 2,4 10,6 12,2 9,7 13,4 13 7 25 13 W 41 9 0,0
23.10.2018 14:00:00 10,1 4,1 12,7 11,7 9,6 13,4 16 9 21 12 WNW 20 35 0,0
23.10.2018 13:00:00 8,2 5,0 11,3 9,7 9,5 13,4 14 8 20 11 W 11 3 0,0
23.10.2018 12:00:00 6,3 4,1 7,0 9,3 9,4 13,4 10 5 22 12 W 6 0 0,0
23.10.2018 11:00:00 5,5 4,0 5,9 8,1 9,5 13,4 12 7 18 10 W 5 11 0,0
23.10.2018 10:00:00 4,1 3,6 4,6 6,9 9,5 13,4 9 5 17 9 W 1,2 12 0,0
23.10.2018 09:00:00 4,4 3,4 4,3 5,9 9,6 13,4 11 6 21 12 SSW 6 25 0,0
23.10.2018 08:00:00 3,6 3,5 3,6 6,2 9,7 13,4 8 4 13 7 SSW - 0 0,0
23.10.2018 07:00:00 4,2 3,9 4,3 6,1 9,8 13,4 3 2 10 6 NNW 0,1 0 0,0
23.10.2018 06:00:00 4,1 3,9 4,1 5,6 10,0 13,4 4 2 14 7 NNE 0,1 0 0,0
23.10.2018 05:00:00 3,1 2,9 1,0 4,6 10,2 13,4 5 3 10 6 WNW 1,8 0 0,0
23.10.2018 04:00:00 2,8 2,7 1,7 5,4 10,4 13,5 8 4 15 8 ESE 0,1 0 0,0
23.10.2018 03:00:00 3,8 3,2 2,7 5,7 10,6 13,5 7 4 16 9 NE 2,1 0 0,0
23.10.2018 02:00:00 4,1 3,2 3,1 6,2 10,7 13,5 13 7 20 11 E 3,8 0 0,0
23.10.2018 01:00:00 4,8 3,1 3,7 6,6 10,9 13,5 14 8 25 14 ENE 8 0 0,0
23.10.2018 00:00:00 5,3 2,5 3,7 7,0 11,0 13,5 8 4 17 9 NE 16 0 0,0
22.10.2018 23:00:00 6,0 2,3 4,8 7,8 11,1 13,5 9 5 24 13 NE 21 0 0,0
22.10.2018 22:00:00 6,8 0,9 5,4 8,8 11,2 13,5 6 4 23 12 NE 33 0 0,0
22.10.2018 21:00:00 7,6 0,6 7,3 9,3 11,2 13,5 10 5 22 12 NE 18 0 0,0
22.10.2018 20:00:00 7,5 1,0 7,4 9,7 11,2 13,5 11 6 22 12 ENE 30 0 0,0
22.10.2018 19:00:00 7,5 1,0 7,1 10,3 11,1 13,5 14 8 23 12 ENE 31 0 0,0
22.10.2018 18:00:00 8,4 1,0 7,9 11,8 10,9 13,5 11 6 26 14 NE 30 49 0,0
22.10.2018 17:00:00 10,2 1,3 11,2 13,6 10,5 13,5 10 6 24 13 NNE 32 59 0,0
22.10.2018 16:00:00 11,5 0,9 14,0 14,5 10,2 13,5 9 5 19 11 NE 26 60 0,0
22.10.2018 15:00:00 11,7 -0,2 14,5 14,5 9,8 13,5 10 6 23 12 E 26 60 0,0
22.10.2018 14:00:00 11,0 0,5 14,4 13,5 9,6 13,5 15 8 31 17 E 17 59 0,0
22.10.2018 13:00:00 10,1 0,2 13,0 12,0 9,4 13,5 17 9 27 15 E 19 55 0,0
22.10.2018 12:00:00 9,2 -1,1 12,4 9,8 9,3 13,5 9 5 30 16 ENE 31 60 0,0
22.10.2018 11:00:00 7,9 -1,7 9,7 7,5 9,4 13,5 18 10 31 17 E 27 60 0,0
22.10.2018 10:00:00 6,3 -1,9 7,0 5,4 9,6 13,6 16 8 29 16 E 57 60 0,0
22.10.2018 09:00:00 4,8 -2,5 4,3 4,0 9,8 13,6 16 8 34 18 E 56 30 0,0
22.10.2018 08:00:00 2,5 -2,3 -0,2 3,8 9,9 13,6 8 4 39 21 ENE 57 0 0,0
22.10.2018 07:00:00 3,7 -2,0 2,4 4,2 10,1 13,6 25 14 35 19 E 54 0 0,0
22.10.2018 06:00:00 3,5 -1,6 2,2 4,5 10,4 13,6 26 14 41 22 E 50 0 0,0
22.10.2018 05:00:00 3,9 -1,3 2,6 4,8 10,6 13,6 26 14 38 20 E 47 0 0,0
22.10.2018 04:00:00 4,1 -1,7 3,0 5,0 10,8 13,6 27 15 39 21 E 53 0 0,0
22.10.2018 03:00:00 3,9 -1,5 2,4 5,2 11,0 13,6 17 9 29 15 E 46 0 0,0
22.10.2018 02:00:00 4,1 -1,7 2,7 5,6 11,2 13,6 18 10 33 18 E 54 0 0,0
22.10.2018 01:00:00 4,1 -0,7 2,9 6,1 11,4 13,6 19 11 42 23 E 38 0 0,0
22.10.2018 00:00:00 5,0 -0,7 3,9 6,6 11,7 13,6 35 19 45 25 E 41 0 0,0
21.10.2018 23:00:00 5,0 -0,5 3,9 7,0 11,9 13,6 36 19 44 24 E 44 0 0,0
21.10.2018 22:00:00 5,5 -0,6 4,3 7,5 12,1 13,6 31 17 40 21 E 48 0 0,0
21.10.2018 21:00:00 6,1 -0,3 4,9 8,2 12,2 13,6 31 17 39 21 E 35 0 0,0
21.10.2018 20:00:00 6,4 0,6 5,2 9,0 12,3 13,6 29 15 36 19 E 38 0 0,0
21.10.2018 19:00:00 7,5 0,1 6,0 10,3 12,2 13,6 13 7 23 12 E 70 4 0,0
21.10.2018 18:00:00 9,5 0,5 8,3 12,3 12,0 13,6 13 7 21 12 E 61 60 0,0
21.10.2018 17:00:00 11,2 -1,0 12,3 14,3 11,7 13,6 12 7 22 12 E 33 60 0,0
21.10.2018 16:00:00 12,1 1,5 14,5 15,3 11,4 13,6 14 7 24 13 E 16 60 0,0
21.10.2018 15:00:00 12,1 2,2 15,1 15,7 11,1 13,6 12 6 19 10 E 15 60 0,0
21.10.2018 14:00:00 11,7 2,3 15,1 15,2 10,8 13,6 8 4 14 8 E 13 60 0,0
21.10.2018 13:00:00 11,8 3,8 14,9 13,4 10,6 13,6 10 5 19 10 E 14 57 0,0
21.10.2018 12:00:00 10,3 4,0 13,1 11,2 10,6 13,6 11 6 21 11 E 19 60 0,0
21.10.2018 11:00:00 8,6 4,1 10,6 8,7 10,7 13,7 16 8 27 14 E 17 57 0,0
21.10.2018 10:00:00 6,2 3,4 5,3 6,9 10,8 13,7 18 10 24 13 E 11 5 0,0
21.10.2018 09:00:00 6,8 3,3 5,2 6,3 11,0 13,7 8 5 14 7 E 15 0 0,0
21.10.2018 08:00:00 5,9 3,7 3,6 5,9 11,2 13,7 11 6 14 8 E 9 0 0,0
21.10.2018 07:00:00 6,2 5,0 4,4 6,2 11,4 13,7 10 5 13 7 E 4,6 0 0,0
21.10.2018 06:00:00 6,0 5,1 4,2 6,4 11,6 13,7 12 7 15 8 E 3,4 0 0,0
21.10.2018 05:00:00 6,5 5,9 4,9 6,6 11,8 13,7 10 5 14 7 E 2,5 0 0,0
21.10.2018 04:00:00 5,6 4,7 4,2 6,9 12,0 13,7 9 5 14 7 E 2,8 0 0,0
21.10.2018 03:00:00 6,9 6,1 5,0 7,2 12,2 13,7 10 5 13 7 E 4,3 0 0,0
21.10.2018 02:00:00 6,0 5,6 4,0 7,6 12,4 13,7 8 5 14 8 E 1,6 0 0,0
21.10.2018 01:00:00 6,7 5,5 5,2 8,3 12,6 13,7 12 6 14 8 E 3,3 0 0,0
21.10.2018 00:00:00 7,1 6,1 4,4 8,7 12,8 13,7 5 3 14 8 ENE 2,4 0 0,0
20.10.2018 23:00:00 8,0 6,5 6,7 9,2 13,0 13,7 7 4 19 11 ENE 2,5 0 0,0
20.10.2018 22:00:00 8,5 6,5 7,3 9,7 13,1 13,7 14 7 20 11 E 2,8 0 0,0
20.10.2018 21:00:00 8,3 6,4 6,6 10,2 13,2 13,7 11 6 14 8 E 3,1 0 0,0
20.10.2018 20:00:00 9,5 6,6 8,0 11,1 13,3 13,7 11 6 14 8 E 4,2 0 0,0
20.10.2018 19:00:00 9,8 6,5 8,3 12,3 13,2 13,7 11 6 14 8 E 5 0 0,0
20.10.2018 18:00:00 11,8 6,7 10,9 14,1 13,0 13,7 7 4 14 8 NE 7 45 0,0
20.10.2018 17:00:00 13,6 6,6 14,5 15,7 12,7 13,7 9 5 22 12 N 8 60 0,0
20.10.2018 16:00:00 15,1 7,2 17,3 16,6 12,4 13,7 10 5 19 11 NNW 9 48 0,0
20.10.2018 15:00:00 13,9 7,8 15,3 16,8 12,1 13,7 8 5 16 9 NW 6 49 0,0
20.10.2018 14:00:00 13,3 7,7 16,9 16,3 11,8 13,7 7 4 13 7 WNW 3,9 60 0,0
20.10.2018 13:00:00 12,2 7,7 16,3 14,5 11,6 13,7 5 3 9 5 NW 3,6 46 0,0
20.10.2018 12:00:00 12,3 6,8 14,5 13,4 11,6 13,7 7 4 18 10 NE 6 55 0,0
20.10.2018 11:00:00 11,6 7,2 13,2 10,8 11,6 13,7 11 6 21 11 E 4,7 60 0,0
20.10.2018 10:00:00 10,5 8,2 9,9 9,0 11,7 13,7 15 8 22 12 E 2,7 60 0,0
20.10.2018 09:00:00 8,8 7,5 7,8 7,7 11,9 13,7 11 6 16 9 ESE 1,7 20 0,0
20.10.2018 08:00:00 6,2 5,7 4,8 7,5 12,1 13,7 9 5 13 7 ENE 0,1 0 0,0
20.10.2018 07:00:00 7,2 6,4 5,3 7,8 12,2 13,7 6 3 15 8 N 0,1 0 0,0
20.10.2018 06:00:00 8,4 7,4 7,1 8,3 12,4 13,7 15 8 22 12 E 1,4 0 0,0
20.10.2018 05:00:00 8,6 7,2 7,1 8,5 12,5 13,8 15 8 19 11 E 1,9 0 0,0
20.10.2018 04:00:00 8,9 7,7 7,6 8,8 12,7 13,8 18 10 22 12 E 1,7 0 0,0
20.10.2018 03:00:00 8,6 7,4 7,3 9,0 12,8 13,8 16 9 23 12 E 1,9 0 0,0
20.10.2018 02:00:00 9,2 7,6 7,9 9,3 13,0 13,8 20 11 26 14 E 2,3 0 0,0
20.10.2018 01:00:00 9,1 7,8 7,7 9,5 13,2 13,8 14 8 24 13 E 2,0 0 0,0
20.10.2018 00:00:00 9,3 7,8 8,1 9,9 13,3 13,8 19 10 27 15 E 2,1 0 0,0
19.10.2018 23:00:00 9,6 7,7 8,5 10,3 13,5 13,8 22 12 28 15 E 2,4 0 0,0
19.10.2018 22:00:00 9,7 7,2 8,6 10,6 13,6 13,8 22 12 29 16 E 3,5 0 0,0
19.10.2018 21:00:00 9,9 6,8 8,8 11,0 13,8 13,8 23 12 27 15 E 5 0 0,0
19.10.2018 20:00:00 9,7 6,4 8,1 11,7 13,8 13,8 10 6 16 9 E 7 0 0,0
19.10.2018 19:00:00 11,1 6,3 9,5 13,0 13,7 13,8 13 7 17 9 E 10 3 0,0
19.10.2018 18:00:00 13,3 6,3 12,3 14,9 13,5 13,8 13 7 17 9 E 12 60 0,0
19.10.2018 17:00:00 14,7 6,2 15,7 16,8 13,2 13,8 10 6 17 9 E 14 60 0,0
19.10.2018 16:00:00 13,9 8,1 16,4 17,6 12,8 13,8 8 5 17 9 NNW 7 60 0,0
19.10.2018 15:00:00 14,1 8,4 18,3 17,7 12,5 13,8 6 4 18 10 N 6 60 0,0
19.10.2018 14:00:00 14,3 7,2 17,5 16,5 12,3 13,8 13 7 29 16 E 10 60 0,0
19.10.2018 13:00:00 13,6 7,0 15,5 15,1 12,1 13,8 19 10 29 16 E 11 45 0,0
19.10.2018 12:00:00 12,9 6,9 14,7 13,1 12,1 13,8 14 7 26 14 E 10 59 0,0
19.10.2018 11:00:00 11,6 7,5 12,7 11,4 12,1 13,8 17 9 24 13 E 6 60 0,0
19.10.2018 10:00:00 10,9 6,4 11,6 9,6 12,2 13,8 13 7 23 13 E 7 60 0,0
19.10.2018 09:00:00 8,9 6,3 8,5 8,4 12,4 13,8 11 6 29 15 E 4,0 35 0,0
19.10.2018 08:00:00 7,9 6,2 6,8 8,3 12,6 13,8 19 10 26 14 E 3,4 0 0,0
19.10.2018 07:00:00 8,2 6,6 7,1 8,5 12,7 13,8 20 11 26 14 E 3,5 0 0,0
19.10.2018 06:00:00 8,9 6,3 7,6 8,8 12,9 13,8 13 7 26 14 E 6 0 0,0
19.10.2018 05:00:00 8,7 6,7 7,6 9,0 13,0 13,8 16 8 24 13 E 4,6 0 0,0
19.10.2018 04:00:00 9,0 6,9 7,7 9,4 13,2 13,8 13 7 31 17 E 4,8 0 0,0
19.10.2018 03:00:00 9,2 7,0 8,0 9,6 13,4 13,8 15 8 22 12 E 4,9 0 0,0
19.10.2018 02:00:00 9,9 7,3 8,8 10,1 13,5 13,8 16 9 29 16 E 6 0 0,0
19.10.2018 01:00:00 10,5 7,3 9,4 10,5 13,7 13,8 20 11 38 21 E 6 0 0,0
19.10.2018 00:00:00 10,6 7,4 9,6 10,7 13,8 13,8 19 10 32 17 E 7 0 0,0
18.10.2018 23:00:00 10,9 7,1 9,7 11,1 14,0 13,8 18 10 35 19 E 10 0 0,0
18.10.2018 22:00:00 11,5 7,4 10,4 11,6 14,1 13,8 19 10 34 18 E 10 0 0,0
18.10.2018 21:00:00 11,8 7,7 10,6 12,1 14,2 13,8 13 7 32 17 ENE 10 0 0,0
18.10.2018 20:00:00 12,4 7,7 11,2 12,7 14,2 13,8 13 7 24 13 NE 9 0 0,0
18.10.2018 19:00:00 12,9 7,7 11,6 13,7 14,1 13,8 11 6 21 12 ENE 12 0 0,0
18.10.2018 18:00:00 14,1 7,3 13,1 15,3 13,9 13,8 7 4 21 11 NE 15 57 0,0
18.10.2018 17:00:00 16,0 7,0 16,5 17,0 13,7 13,8 9 5 22 12 NNE 15 60 0,0
18.10.2018 16:00:00 16,6 6,5 18,3 18,0 13,4 13,8 11 6 22 12 NE 19 60 0,0
18.10.2018 15:00:00 17,4 5,2 20,2 17,6 13,1 13,8 12 7 26 14 E 20 60 0,0
18.10.2018 14:00:00 16,6 4,2 19,0 17,0 12,9 13,8 16 9 31 17 E 21 60 0,0
18.10.2018 13:00:00 15,5 5,3 17,9 15,0 12,8 13,8 14 7 23 12 E 19 47 0,0
18.10.2018 12:00:00 14,6 5,3 15,7 13,5 12,7 13,8 16 9 27 15 E 19 46 0,0
18.10.2018 11:00:00 13,2 6,2 13,8 11,9 12,8 13,8 16 9 27 15 E 14 42 0,0
18.10.2018 10:00:00 12,1 7,0 12,2 10,7 12,9 13,8 18 10 29 16 E 8 10 0,0
18.10.2018 09:00:00 11,1 6,9 10,5 9,9 13,0 13,8 18 10 29 16 E 7 0 0,0
18.10.2018 08:00:00 10,4 6,6 9,3 9,7 13,1 13,8 20 11 29 15 E 6 0 0,0
18.10.2018 07:00:00 10,5 6,4 9,4 10,0 13,2 13,8 20 11 27 15 E 8 0 0,0
18.10.2018 06:00:00 11,2 6,5 10,1 10,3 13,4 13,8 21 11 29 16 E 9 0 0,0
18.10.2018 05:00:00 11,2 6,6 10,3 10,4 13,5 13,8 21 12 29 16 E 8 0 0,0
18.10.2018 04:00:00 11,3 6,4 10,4 10,6 13,6 13,8 21 12 28 15 E 9 0 0,0
18.10.2018 03:00:00 11,5 6,6 10,6 10,7 13,8 13,9 17 9 25 13 E 10 0 0,0
18.10.2018 02:00:00 11,5 6,6 10,5 10,9 14,0 13,8 18 10 29 15 E 12 0 0,0
18.10.2018 01:00:00 11,5 6,4 10,3 11,1 14,1 13,9 18 10 24 13 E 16 0 0,0
18.10.2018 00:00:00 11,4 6,2 10,3 11,4 14,3 13,9 16 9 24 13 E 19 0 0,0

tt = Température de l'air
td = dewpoint
tt 5cm = Température de l'air 5cm
tt -5cm = Température de l'air -5cm
tt -20cm = Température de l'air -20cm
tt -100cm = Température de l'air -100cm
ff = Vitesse du vent
fx = gusts
dd = Direction du vent
vv = visibility
sd = Ensoleillement
rr = Quantités de précipitations

stations d'obs. à proximité